sensor_id;sensor_type;location;lat;lon;timestamp;P1;durP1;ratioP1;P2;durP2;ratioP2
5060;SDS011;2549;52.128;21.068;2024-03-22T00:01:46;40.07;;;23.07;;
5060;SDS011;2549;52.128;21.068;2024-03-22T00:04:12;38.20;;;21.80;;
5060;SDS011;2549;52.128;21.068;2024-03-22T00:06:38;45.73;;;23.90;;
5060;SDS011;2549;52.128;21.068;2024-03-22T00:09:05;39.90;;;22.40;;
5060;SDS011;2549;52.128;21.068;2024-03-22T00:11:31;40.67;;;22.03;;
5060;SDS011;2549;52.128;21.068;2024-03-22T00:13:57;40.00;;;22.20;;
5060;SDS011;2549;52.128;21.068;2024-03-22T00:16:24;47.33;;;23.67;;
5060;SDS011;2549;52.128;21.068;2024-03-22T00:18:50;53.73;;;23.73;;
5060;SDS011;2549;52.128;21.068;2024-03-22T00:21:16;42.10;;;22.77;;
5060;SDS011;2549;52.128;21.068;2024-03-22T00:23:43;46.07;;;23.30;;
5060;SDS011;2549;52.128;21.068;2024-03-22T00:26:10;41.90;;;22.90;;
5060;SDS011;2549;52.128;21.068;2024-03-22T00:28:36;46.37;;;23.47;;
5060;SDS011;2549;52.128;21.068;2024-03-22T00:31:02;43.60;;;23.13;;
5060;SDS011;2549;52.128;21.068;2024-03-22T00:33:27;41.07;;;23.73;;
5060;SDS011;2549;52.128;21.068;2024-03-22T00:35:53;38.77;;;22.33;;
5060;SDS011;2549;52.128;21.068;2024-03-22T00:38:19;38.73;;;23.30;;
5060;SDS011;2549;52.128;21.068;2024-03-22T00:40:45;39.50;;;23.10;;
5060;SDS011;2549;52.128;21.068;2024-03-22T00:43:11;40.93;;;22.70;;
5060;SDS011;2549;52.128;21.068;2024-03-22T00:45:37;45.13;;;24.20;;
5060;SDS011;2549;52.128;21.068;2024-03-22T00:48:03;44.70;;;23.77;;
5060;SDS011;2549;52.128;21.068;2024-03-22T00:50:29;42.63;;;22.80;;
5060;SDS011;2549;52.128;21.068;2024-03-22T00:52:55;46.67;;;24.57;;
5060;SDS011;2549;52.128;21.068;2024-03-22T00:55:22;41.77;;;24.73;;
5060;SDS011;2549;52.128;21.068;2024-03-22T00:57:48;44.17;;;24.43;;
5060;SDS011;2549;52.128;21.068;2024-03-22T01:00:14;50.77;;;24.87;;
5060;SDS011;2549;52.128;21.068;2024-03-22T01:02:41;46.90;;;23.97;;
5060;SDS011;2549;52.128;21.068;2024-03-22T01:05:08;45.40;;;25.37;;
5060;SDS011;2549;52.128;21.068;2024-03-22T01:07:35;48.20;;;25.20;;
5060;SDS011;2549;52.128;21.068;2024-03-22T01:10:02;41.03;;;24.40;;
5060;SDS011;2549;52.128;21.068;2024-03-22T01:12:31;42.90;;;24.30;;
5060;SDS011;2549;52.128;21.068;2024-03-22T01:14:57;44.70;;;24.87;;
5060;SDS011;2549;52.128;21.068;2024-03-22T01:17:23;43.47;;;24.60;;
5060;SDS011;2549;52.128;21.068;2024-03-22T01:19:49;43.87;;;25.87;;
5060;SDS011;2549;52.128;21.068;2024-03-22T01:22:16;54.60;;;27.57;;
5060;SDS011;2549;52.128;21.068;2024-03-22T01:24:43;41.97;;;24.40;;
5060;SDS011;2549;52.128;21.068;2024-03-22T01:27:10;46.10;;;26.60;;
5060;SDS011;2549;52.128;21.068;2024-03-22T01:29:36;46.87;;;27.20;;
5060;SDS011;2549;52.128;21.068;2024-03-22T01:32:02;51.40;;;26.43;;
5060;SDS011;2549;52.128;21.068;2024-03-22T01:34:29;46.83;;;24.90;;
5060;SDS011;2549;52.128;21.068;2024-03-22T01:36:55;45.80;;;26.03;;
5060;SDS011;2549;52.128;21.068;2024-03-22T01:39:20;46.93;;;25.20;;
5060;SDS011;2549;52.128;21.068;2024-03-22T01:41:47;46.67;;;26.20;;
5060;SDS011;2549;52.128;21.068;2024-03-22T01:44:14;52.17;;;28.60;;
5060;SDS011;2549;52.128;21.068;2024-03-22T01:46:40;52.37;;;27.93;;
5060;SDS011;2549;52.128;21.068;2024-03-22T01:49:11;46.30;;;25.30;;
5060;SDS011;2549;52.128;21.068;2024-03-22T01:51:42;46.03;;;27.37;;
5060;SDS011;2549;52.128;21.068;2024-03-22T01:54:08;49.57;;;27.00;;
5060;SDS011;2549;52.128;21.068;2024-03-22T01:56:38;51.90;;;27.80;;
5060;SDS011;2549;52.128;21.068;2024-03-22T01:59:05;51.17;;;26.33;;
5060;SDS011;2549;52.128;21.068;2024-03-22T02:01:31;50.00;;;28.53;;
5060;SDS011;2549;52.128;21.068;2024-03-22T02:03:58;52.43;;;27.83;;
5060;SDS011;2549;52.128;21.068;2024-03-22T02:06:23;56.37;;;29.10;;
5060;SDS011;2549;52.128;21.068;2024-03-22T02:08:50;62.10;;;30.37;;
5060;SDS011;2549;52.128;21.068;2024-03-22T02:11:15;56.60;;;30.57;;
5060;SDS011;2549;52.128;21.068;2024-03-22T02:13:41;58.87;;;31.17;;
5060;SDS011;2549;52.128;21.068;2024-03-22T02:16:10;65.27;;;30.40;;
5060;SDS011;2549;52.128;21.068;2024-03-22T02:18:37;62.83;;;31.87;;
5060;SDS011;2549;52.128;21.068;2024-03-22T02:21:03;65.83;;;33.00;;
5060;SDS011;2549;52.128;21.068;2024-03-22T02:23:33;62.50;;;31.03;;
5060;SDS011;2549;52.128;21.068;2024-03-22T02:26:00;55.13;;;30.30;;
5060;SDS011;2549;52.128;21.068;2024-03-22T02:28:26;61.90;;;32.47;;
5060;SDS011;2549;52.128;21.068;2024-03-22T02:30:52;62.13;;;32.40;;
5060;SDS011;2549;52.128;21.068;2024-03-22T02:33:18;61.40;;;32.70;;
5060;SDS011;2549;52.128;21.068;2024-03-22T02:35:47;57.03;;;33.23;;
5060;SDS011;2549;52.128;21.068;2024-03-22T02:38:14;66.73;;;31.93;;
5060;SDS011;2549;52.128;21.068;2024-03-22T02:40:40;72.97;;;32.47;;
5060;SDS011;2549;52.128;21.068;2024-03-22T02:43:08;68.07;;;33.00;;
5060;SDS011;2549;52.128;21.068;2024-03-22T02:45:34;67.73;;;32.63;;
5060;SDS011;2549;52.128;21.068;2024-03-22T02:48:00;68.27;;;34.63;;
5060;SDS011;2549;52.128;21.068;2024-03-22T02:50:26;73.57;;;34.50;;
5060;SDS011;2549;52.128;21.068;2024-03-22T02:52:52;77.30;;;33.60;;
5060;SDS011;2549;52.128;21.068;2024-03-22T02:55:17;65.70;;;30.33;;
5060;SDS011;2549;52.128;21.068;2024-03-22T02:57:43;56.10;;;29.97;;
5060;SDS011;2549;52.128;21.068;2024-03-22T03:00:09;69.60;;;31.60;;
5060;SDS011;2549;52.128;21.068;2024-03-22T03:02:36;63.07;;;29.30;;
5060;SDS011;2549;52.128;21.068;2024-03-22T03:05:02;61.03;;;28.60;;
5060;SDS011;2549;52.128;21.068;2024-03-22T03:07:28;58.10;;;30.20;;
5060;SDS011;2549;52.128;21.068;2024-03-22T03:09:54;65.97;;;30.90;;
5060;SDS011;2549;52.128;21.068;2024-03-22T03:12:20;62.43;;;30.80;;
5060;SDS011;2549;52.128;21.068;2024-03-22T03:14:46;70.43;;;31.10;;
5060;SDS011;2549;52.128;21.068;2024-03-22T03:17:12;61.53;;;31.03;;
5060;SDS011;2549;52.128;21.068;2024-03-22T03:19:38;69.00;;;30.03;;
5060;SDS011;2549;52.128;21.068;2024-03-22T03:22:04;59.27;;;29.77;;
5060;SDS011;2549;52.128;21.068;2024-03-22T03:24:30;68.90;;;30.57;;
5060;SDS011;2549;52.128;21.068;2024-03-22T03:26:56;62.50;;;28.93;;
5060;SDS011;2549;52.128;21.068;2024-03-22T03:29:22;54.07;;;27.80;;
5060;SDS011;2549;52.128;21.068;2024-03-22T03:31:48;61.03;;;29.33;;
5060;SDS011;2549;52.128;21.068;2024-03-22T03:34:14;66.13;;;31.13;;
5060;SDS011;2549;52.128;21.068;2024-03-22T03:36:41;67.57;;;32.50;;
5060;SDS011;2549;52.128;21.068;2024-03-22T03:39:06;53.23;;;27.90;;
5060;SDS011;2549;52.128;21.068;2024-03-22T03:41:32;60.10;;;29.43;;
5060;SDS011;2549;52.128;21.068;2024-03-22T03:43:58;55.00;;;27.57;;
5060;SDS011;2549;52.128;21.068;2024-03-22T03:46:24;59.10;;;31.03;;
5060;SDS011;2549;52.128;21.068;2024-03-22T03:48:50;57.27;;;29.57;;
5060;SDS011;2549;52.128;21.068;2024-03-22T03:51:16;58.60;;;29.33;;
5060;SDS011;2549;52.128;21.068;2024-03-22T03:53:42;61.80;;;30.33;;
5060;SDS011;2549;52.128;21.068;2024-03-22T03:56:08;49.80;;;27.67;;
5060;SDS011;2549;52.128;21.068;2024-03-22T03:58:34;54.73;;;29.23;;
5060;SDS011;2549;52.128;21.068;2024-03-22T04:01:04;54.17;;;27.77;;
5060;SDS011;2549;52.128;21.068;2024-03-22T04:03:31;55.03;;;27.90;;
5060;SDS011;2549;52.128;21.068;2024-03-22T04:05:57;58.57;;;27.17;;
5060;SDS011;2549;52.128;21.068;2024-03-22T04:08:27;51.83;;;26.43;;
5060;SDS011;2549;52.128;21.068;2024-03-22T04:10:56;55.00;;;26.47;;
5060;SDS011;2549;52.128;21.068;2024-03-22T04:13:23;53.10;;;26.37;;
5060;SDS011;2549;52.128;21.068;2024-03-22T04:15:50;55.13;;;27.00;;
5060;SDS011;2549;52.128;21.068;2024-03-22T04:18:16;57.33;;;27.37;;
5060;SDS011;2549;52.128;21.068;2024-03-22T04:20:42;52.30;;;25.67;;
5060;SDS011;2549;52.128;21.068;2024-03-22T04:23:18;54.47;;;26.43;;
5060;SDS011;2549;52.128;21.068;2024-03-22T04:25:51;49.13;;;24.07;;
5060;SDS011;2549;52.128;21.068;2024-03-22T04:28:27;45.57;;;22.73;;
5060;SDS011;2549;52.128;21.068;2024-03-22T04:31:07;50.20;;;24.23;;
5060;SDS011;2549;52.128;21.068;2024-03-22T04:33:34;45.77;;;21.47;;
5060;SDS011;2549;52.128;21.068;2024-03-22T04:36:01;44.20;;;21.10;;
5060;SDS011;2549;52.128;21.068;2024-03-22T04:38:28;46.03;;;21.97;;
5060;SDS011;2549;52.128;21.068;2024-03-22T04:40:55;47.43;;;22.47;;
5060;SDS011;2549;52.128;21.068;2024-03-22T04:43:25;50.40;;;22.73;;
5060;SDS011;2549;52.128;21.068;2024-03-22T04:45:51;47.43;;;23.23;;
5060;SDS011;2549;52.128;21.068;2024-03-22T04:48:21;54.05;;;21.83;;
5060;SDS011;2549;52.128;21.068;2024-03-22T04:50:48;46.47;;;21.60;;
5060;SDS011;2549;52.128;21.068;2024-03-22T04:53:16;46.47;;;21.67;;
5060;SDS011;2549;52.128;21.068;2024-03-22T04:55:45;42.33;;;20.17;;
5060;SDS011;2549;52.128;21.068;2024-03-22T04:58:24;40.80;;;22.27;;
5060;SDS011;2549;52.128;21.068;2024-03-22T05:00:56;45.43;;;21.80;;
5060;SDS011;2549;52.128;21.068;2024-03-22T05:03:22;44.53;;;21.47;;
5060;SDS011;2549;52.128;21.068;2024-03-22T05:05:49;43.40;;;21.50;;
5060;SDS011;2549;52.128;21.068;2024-03-22T05:08:16;52.20;;;23.00;;
5060;SDS011;2549;52.128;21.068;2024-03-22T05:10:42;44.97;;;21.93;;
5060;SDS011;2549;52.128;21.068;2024-03-22T05:13:08;41.85;;;22.67;;
5060;SDS011;2549;52.128;21.068;2024-03-22T05:15:34;59.77;;;24.87;;
5060;SDS011;2549;52.128;21.068;2024-03-22T05:18:00;48.07;;;23.13;;
5060;SDS011;2549;52.128;21.068;2024-03-22T05:20:26;43.53;;;23.90;;
5060;SDS011;2549;52.128;21.068;2024-03-22T05:22:52;51.60;;;23.33;;
5060;SDS011;2549;52.128;21.068;2024-03-22T05:25:18;54.07;;;24.20;;
5060;SDS011;2549;52.128;21.068;2024-03-22T05:27:45;45.80;;;24.07;;
5060;SDS011;2549;52.128;21.068;2024-03-22T05:30:11;47.73;;;24.03;;
5060;SDS011;2549;52.128;21.068;2024-03-22T05:32:38;49.53;;;25.30;;
5060;SDS011;2549;52.128;21.068;2024-03-22T05:35:05;49.43;;;25.40;;
5060;SDS011;2549;52.128;21.068;2024-03-22T05:37:32;58.93;;;26.07;;
5060;SDS011;2549;52.128;21.068;2024-03-22T05:39:59;51.07;;;24.90;;
5060;SDS011;2549;52.128;21.068;2024-03-22T05:42:26;51.63;;;24.50;;
5060;SDS011;2549;52.128;21.068;2024-03-22T05:44:52;51.08;;;25.35;;
5060;SDS011;2549;52.128;21.068;2024-03-22T05:47:18;52.03;;;23.37;;
5060;SDS011;2549;52.128;21.068;2024-03-22T05:49:46;38.80;;;22.00;;
5060;SDS011;2549;52.128;21.068;2024-03-22T05:52:12;45.93;;;23.87;;
5060;SDS011;2549;52.128;21.068;2024-03-22T05:54:38;43.63;;;21.93;;
5060;SDS011;2549;52.128;21.068;2024-03-22T05:57:04;44.60;;;22.97;;
5060;SDS011;2549;52.128;21.068;2024-03-22T05:59:32;42.80;;;22.00;;
5060;SDS011;2549;52.128;21.068;2024-03-22T06:01:59;41.00;;;22.23;;
5060;SDS011;2549;52.128;21.068;2024-03-22T06:04:26;46.60;;;23.23;;
5060;SDS011;2549;52.128;21.068;2024-03-22T06:06:52;44.30;;;20.70;;
5060;SDS011;2549;52.128;21.068;2024-03-22T06:09:18;40.67;;;20.87;;
5060;SDS011;2549;52.128;21.068;2024-03-22T06:11:59;38.85;;;20.63;;
5060;SDS011;2549;52.128;21.068;2024-03-22T06:14:25;33.50;;;19.00;;
5060;SDS011;2549;52.128;21.068;2024-03-22T06:16:52;36.90;;;20.00;;
5060;SDS011;2549;52.128;21.068;2024-03-22T06:19:18;34.93;;;19.77;;
5060;SDS011;2549;52.128;21.068;2024-03-22T06:21:43;32.13;;;18.40;;
5060;SDS011;2549;52.128;21.068;2024-03-22T06:24:09;37.07;;;18.60;;
5060;SDS011;2549;52.128;21.068;2024-03-22T06:26:35;31.83;;;18.10;;
5060;SDS011;2549;52.128;21.068;2024-03-22T06:29:01;36.47;;;18.60;;
5060;SDS011;2549;52.128;21.068;2024-03-22T06:31:27;36.20;;;19.37;;
5060;SDS011;2549;52.128;21.068;2024-03-22T06:33:54;32.60;;;18.30;;
5060;SDS011;2549;52.128;21.068;2024-03-22T06:36:22;36.90;;;19.10;;
5060;SDS011;2549;52.128;21.068;2024-03-22T06:38:47;34.70;;;16.93;;
5060;SDS011;2549;52.128;21.068;2024-03-22T06:41:13;34.30;;;19.20;;
5060;SDS011;2549;52.128;21.068;2024-03-22T06:43:39;33.33;;;17.80;;
5060;SDS011;2549;52.128;21.068;2024-03-22T06:46:06;35.90;;;17.87;;
5060;SDS011;2549;52.128;21.068;2024-03-22T06:48:32;26.30;;;16.30;;
5060;SDS011;2549;52.128;21.068;2024-03-22T06:50:58;32.20;;;16.90;;
5060;SDS011;2549;52.128;21.068;2024-03-22T06:53:24;32.53;;;16.93;;
5060;SDS011;2549;52.128;21.068;2024-03-22T06:55:50;39.33;;;18.77;;
5060;SDS011;2549;52.128;21.068;2024-03-22T06:58:16;32.50;;;16.80;;
5060;SDS011;2549;52.128;21.068;2024-03-22T07:00:42;29.10;;;15.20;;
5060;SDS011;2549;52.128;21.068;2024-03-22T07:03:08;29.33;;;16.97;;
5060;SDS011;2549;52.128;21.068;2024-03-22T07:05:34;31.57;;;16.40;;
5060;SDS011;2549;52.128;21.068;2024-03-22T07:08:00;27.03;;;15.90;;
5060;SDS011;2549;52.128;21.068;2024-03-22T07:10:26;28.00;;;14.80;;
5060;SDS011;2549;52.128;21.068;2024-03-22T07:12:56;25.23;;;14.00;;
5060;SDS011;2549;52.128;21.068;2024-03-22T07:15:25;28.30;;;14.60;;
5060;SDS011;2549;52.128;21.068;2024-03-22T07:17:51;23.90;;;14.57;;
5060;SDS011;2549;52.128;21.068;2024-03-22T07:20:17;29.87;;;15.20;;
5060;SDS011;2549;52.128;21.068;2024-03-22T07:22:44;30.87;;;16.20;;
5060;SDS011;2549;52.128;21.068;2024-03-22T07:25:10;35.20;;;19.77;;
5060;SDS011;2549;52.128;21.068;2024-03-22T07:27:36;38.40;;;20.43;;
5060;SDS011;2549;52.128;21.068;2024-03-22T07:30:02;37.37;;;20.77;;
5060;SDS011;2549;52.128;21.068;2024-03-22T07:32:30;46.20;;;24.00;;
5060;SDS011;2549;52.128;21.068;2024-03-22T07:34:57;49.20;;;23.37;;
5060;SDS011;2549;52.128;21.068;2024-03-22T07:37:23;37.97;;;20.90;;
5060;SDS011;2549;52.128;21.068;2024-03-22T07:39:49;49.83;;;23.50;;
5060;SDS011;2549;52.128;21.068;2024-03-22T07:42:15;37.97;;;21.80;;
5060;SDS011;2549;52.128;21.068;2024-03-22T07:44:42;37.33;;;22.80;;
5060;SDS011;2549;52.128;21.068;2024-03-22T07:47:07;46.63;;;24.23;;
5060;SDS011;2549;52.128;21.068;2024-03-22T07:49:33;42.40;;;23.43;;
5060;SDS011;2549;52.128;21.068;2024-03-22T07:52:00;42.20;;;22.53;;
5060;SDS011;2549;52.128;21.068;2024-03-22T07:54:26;35.70;;;22.10;;
5060;SDS011;2549;52.128;21.068;2024-03-22T07:56:52;39.07;;;21.33;;
5060;SDS011;2549;52.128;21.068;2024-03-22T07:59:17;38.83;;;20.87;;
5060;SDS011;2549;52.128;21.068;2024-03-22T08:01:43;34.60;;;20.73;;
5060;SDS011;2549;52.128;21.068;2024-03-22T08:04:09;39.03;;;20.83;;
5060;SDS011;2549;52.128;21.068;2024-03-22T08:06:35;36.90;;;20.07;;
5060;SDS011;2549;52.128;21.068;2024-03-22T08:09:01;34.20;;;20.10;;
5060;SDS011;2549;52.128;21.068;2024-03-22T08:11:28;37.83;;;20.23;;
5060;SDS011;2549;52.128;21.068;2024-03-22T08:13:54;32.80;;;18.73;;
5060;SDS011;2549;52.128;21.068;2024-03-22T08:16:27;33.30;;;18.30;;
5060;SDS011;2549;52.128;21.068;2024-03-22T08:18:54;39.60;;;20.53;;
5060;SDS011;2549;52.128;21.068;2024-03-22T08:21:20;36.30;;;18.40;;
5060;SDS011;2549;52.128;21.068;2024-03-22T08:23:46;33.60;;;18.17;;
5060;SDS011;2549;52.128;21.068;2024-03-22T08:26:12;28.80;;;17.80;;
5060;SDS011;2549;52.128;21.068;2024-03-22T08:28:41;29.57;;;17.40;;
5060;SDS011;2549;52.128;21.068;2024-03-22T08:31:07;29.87;;;17.10;;
5060;SDS011;2549;52.128;21.068;2024-03-22T08:33:33;23.80;;;14.10;;
5060;SDS011;2549;52.128;21.068;2024-03-22T08:35:59;27.80;;;15.80;;
5060;SDS011;2549;52.128;21.068;2024-03-22T08:38:26;26.73;;;16.07;;
5060;SDS011;2549;52.128;21.068;2024-03-22T08:40:52;28.47;;;16.97;;
5060;SDS011;2549;52.128;21.068;2024-03-22T08:43:18;26.57;;;16.03;;
5060;SDS011;2549;52.128;21.068;2024-03-22T08:45:47;33.30;;;17.00;;
5060;SDS011;2549;52.128;21.068;2024-03-22T08:48:13;32.13;;;15.90;;
5060;SDS011;2549;52.128;21.068;2024-03-22T08:50:41;25.33;;;14.67;;
5060;SDS011;2549;52.128;21.068;2024-03-22T08:53:07;29.57;;;14.90;;
5060;SDS011;2549;52.128;21.068;2024-03-22T08:55:33;28.23;;;16.00;;
5060;SDS011;2549;52.128;21.068;2024-03-22T08:57:59;29.80;;;16.20;;
5060;SDS011;2549;52.128;21.068;2024-03-22T09:00:25;27.30;;;15.47;;
5060;SDS011;2549;52.128;21.068;2024-03-22T09:02:52;22.63;;;13.93;;
5060;SDS011;2549;52.128;21.068;2024-03-22T09:05:18;20.77;;;13.33;;
5060;SDS011;2549;52.128;21.068;2024-03-22T09:07:44;23.00;;;12.77;;
5060;SDS011;2549;52.128;21.068;2024-03-22T09:10:10;15.73;;;10.73;;
5060;SDS011;2549;52.128;21.068;2024-03-22T09:12:37;19.17;;;11.93;;
5060;SDS011;2549;52.128;21.068;2024-03-22T09:15:03;20.03;;;11.27;;
5060;SDS011;2549;52.128;21.068;2024-03-22T09:17:29;20.43;;;11.67;;
5060;SDS011;2549;52.128;21.068;2024-03-22T09:19:55;20.50;;;12.27;;
5060;SDS011;2549;52.128;21.068;2024-03-22T09:22:21;17.90;;;11.97;;
5060;SDS011;2549;52.128;21.068;2024-03-22T09:24:47;21.23;;;12.47;;
5060;SDS011;2549;52.128;21.068;2024-03-22T09:27:13;17.00;;;11.80;;
5060;SDS011;2549;52.128;21.068;2024-03-22T09:29:39;19.93;;;11.13;;
5060;SDS011;2549;52.128;21.068;2024-03-22T09:32:05;19.43;;;11.20;;
5060;SDS011;2549;52.128;21.068;2024-03-22T09:34:31;17.33;;;12.23;;
5060;SDS011;2549;52.128;21.068;2024-03-22T09:36:57;17.87;;;12.00;;
5060;SDS011;2549;52.128;21.068;2024-03-22T09:39:23;22.17;;;11.30;;
5060;SDS011;2549;52.128;21.068;2024-03-22T09:41:50;19.77;;;10.80;;
5060;SDS011;2549;52.128;21.068;2024-03-22T09:44:19;21.17;;;13.00;;
5060;SDS011;2549;52.128;21.068;2024-03-22T09:46:46;19.67;;;11.73;;
5060;SDS011;2549;52.128;21.068;2024-03-22T09:49:16;18.30;;;12.33;;
5060;SDS011;2549;52.128;21.068;2024-03-22T09:51:45;18.07;;;12.33;;
5060;SDS011;2549;52.128;21.068;2024-03-22T09:54:12;21.47;;;13.57;;
5060;SDS011;2549;52.128;21.068;2024-03-22T09:56:38;21.37;;;13.57;;
5060;SDS011;2549;52.128;21.068;2024-03-22T09:59:08;20.70;;;13.00;;
5060;SDS011;2549;52.128;21.068;2024-03-22T10:01:35;22.90;;;12.00;;
5060;SDS011;2549;52.128;21.068;2024-03-22T10:04:02;19.20;;;12.97;;
5060;SDS011;2549;52.128;21.068;2024-03-22T10:06:31;21.80;;;12.50;;
5060;SDS011;2549;52.128;21.068;2024-03-22T10:08:58;23.23;;;13.03;;
5060;SDS011;2549;52.128;21.068;2024-03-22T10:11:26;19.63;;;12.80;;
5060;SDS011;2549;52.128;21.068;2024-03-22T10:13:52;25.67;;;13.00;;
5060;SDS011;2549;52.128;21.068;2024-03-22T10:16:21;27.47;;;14.80;;
5060;SDS011;2549;52.128;21.068;2024-03-22T10:18:47;23.50;;;13.47;;
5060;SDS011;2549;52.128;21.068;2024-03-22T10:21:17;23.27;;;14.00;;
5060;SDS011;2549;52.128;21.068;2024-03-22T10:23:44;30.43;;;15.40;;
5060;SDS011;2549;52.128;21.068;2024-03-22T10:26:12;22.17;;;14.47;;
5060;SDS011;2549;52.128;21.068;2024-03-22T10:28:44;23.17;;;13.57;;
5060;SDS011;2549;52.128;21.068;2024-03-22T10:31:12;22.33;;;13.90;;
5060;SDS011;2549;52.128;21.068;2024-03-22T10:33:38;20.60;;;13.13;;
5060;SDS011;2549;52.128;21.068;2024-03-22T10:36:06;23.73;;;14.33;;
5060;SDS011;2549;52.128;21.068;2024-03-22T10:38:32;21.07;;;13.20;;
5060;SDS011;2549;52.128;21.068;2024-03-22T10:41:01;24.67;;;12.03;;
5060;SDS011;2549;52.128;21.068;2024-03-22T10:43:28;23.07;;;13.33;;
5060;SDS011;2549;52.128;21.068;2024-03-22T10:45:55;20.17;;;12.93;;
5060;SDS011;2549;52.128;21.068;2024-03-22T10:48:24;23.97;;;13.23;;
5060;SDS011;2549;52.128;21.068;2024-03-22T10:50:54;21.87;;;13.33;;
5060;SDS011;2549;52.128;21.068;2024-03-22T10:53:24;20.70;;;12.87;;
5060;SDS011;2549;52.128;21.068;2024-03-22T10:55:52;21.07;;;13.43;;
5060;SDS011;2549;52.128;21.068;2024-03-22T10:58:21;18.73;;;12.33;;
5060;SDS011;2549;52.128;21.068;2024-03-22T11:00:51;18.77;;;12.13;;
5060;SDS011;2549;52.128;21.068;2024-03-22T11:03:21;21.23;;;12.13;;
5060;SDS011;2549;52.128;21.068;2024-03-22T11:05:55;26.63;;;12.93;;
5060;SDS011;2549;52.128;21.068;2024-03-22T11:08:32;17.83;;;11.50;;
5060;SDS011;2549;52.128;21.068;2024-03-22T11:11:08;19.30;;;12.83;;
5060;SDS011;2549;52.128;21.068;2024-03-22T11:13:36;18.97;;;12.43;;
5060;SDS011;2549;52.128;21.068;2024-03-22T11:16:04;19.77;;;12.67;;
5060;SDS011;2549;52.128;21.068;2024-03-22T11:18:30;28.40;;;12.20;;
5060;SDS011;2549;52.128;21.068;2024-03-22T11:20:59;18.50;;;11.83;;
5060;SDS011;2549;52.128;21.068;2024-03-22T11:23:25;16.17;;;11.70;;
5060;SDS011;2549;52.128;21.068;2024-03-22T11:25:51;22.67;;;13.50;;
5060;SDS011;2549;52.128;21.068;2024-03-22T11:28:17;21.83;;;12.27;;
5060;SDS011;2549;52.128;21.068;2024-03-22T11:30:44;18.20;;;12.33;;
5060;SDS011;2549;52.128;21.068;2024-03-22T11:33:10;16.63;;;11.63;;
5060;SDS011;2549;52.128;21.068;2024-03-22T11:35:36;16.80;;;11.73;;
5060;SDS011;2549;52.128;21.068;2024-03-22T11:38:03;17.50;;;11.13;;
5060;SDS011;2549;52.128;21.068;2024-03-22T11:40:30;15.43;;;11.57;;
5060;SDS011;2549;52.128;21.068;2024-03-22T11:42:58;19.47;;;11.90;;
5060;SDS011;2549;52.128;21.068;2024-03-22T11:45:25;17.00;;;11.80;;
5060;SDS011;2549;52.128;21.068;2024-03-22T11:47:52;15.53;;;10.30;;
5060;SDS011;2549;52.128;21.068;2024-03-22T11:50:18;14.13;;;9.97;;
5060;SDS011;2549;52.128;21.068;2024-03-22T11:52:45;15.03;;;9.90;;
5060;SDS011;2549;52.128;21.068;2024-03-22T11:55:14;13.20;;;9.40;;
5060;SDS011;2549;52.128;21.068;2024-03-22T11:57:40;14.00;;;9.53;;
5060;SDS011;2549;52.128;21.068;2024-03-22T12:00:07;16.57;;;10.50;;
5060;SDS011;2549;52.128;21.068;2024-03-22T12:02:38;16.50;;;10.60;;
5060;SDS011;2549;52.128;21.068;2024-03-22T12:05:04;13.70;;;9.67;;
5060;SDS011;2549;52.128;21.068;2024-03-22T12:07:31;15.37;;;9.67;;
5060;SDS011;2549;52.128;21.068;2024-03-22T12:09:58;18.63;;;10.90;;
5060;SDS011;2549;52.128;21.068;2024-03-22T12:12:24;15.53;;;10.90;;
5060;SDS011;2549;52.128;21.068;2024-03-22T12:14:50;15.47;;;10.77;;
5060;SDS011;2549;52.128;21.068;2024-03-22T12:17:19;17.43;;;10.67;;
5060;SDS011;2549;52.128;21.068;2024-03-22T12:19:45;15.20;;;10.73;;
5060;SDS011;2549;52.128;21.068;2024-03-22T12:22:11;14.50;;;10.10;;
5060;SDS011;2549;52.128;21.068;2024-03-22T12:24:37;14.67;;;9.47;;
5060;SDS011;2549;52.128;21.068;2024-03-22T12:27:03;25.20;;;9.47;;
5060;SDS011;2549;52.128;21.068;2024-03-22T12:29:29;13.00;;;8.73;;
5060;SDS011;2549;52.128;21.068;2024-03-22T12:31:58;16.97;;;9.53;;
5060;SDS011;2549;52.128;21.068;2024-03-22T12:34:27;13.43;;;8.47;;
5060;SDS011;2549;52.128;21.068;2024-03-22T12:36:55;16.40;;;10.40;;
5060;SDS011;2549;52.128;21.068;2024-03-22T12:39:21;14.83;;;9.37;;
5060;SDS011;2549;52.128;21.068;2024-03-22T12:41:47;11.37;;;8.60;;
5060;SDS011;2549;52.128;21.068;2024-03-22T12:44:14;15.83;;;9.23;;
5060;SDS011;2549;52.128;21.068;2024-03-22T12:46:40;13.17;;;9.30;;
5060;SDS011;2549;52.128;21.068;2024-03-22T12:49:09;9.07;;;7.53;;
5060;SDS011;2549;52.128;21.068;2024-03-22T12:51:36;10.40;;;6.67;;
5060;SDS011;2549;52.128;21.068;2024-03-22T12:54:02;12.10;;;8.20;;
5060;SDS011;2549;52.128;21.068;2024-03-22T12:56:29;10.40;;;6.90;;
5060;SDS011;2549;52.128;21.068;2024-03-22T12:58:55;12.47;;;7.30;;
5060;SDS011;2549;52.128;21.068;2024-03-22T13:01:21;9.90;;;7.43;;
5060;SDS011;2549;52.128;21.068;2024-03-22T13:03:47;10.70;;;7.40;;
5060;SDS011;2549;52.128;21.068;2024-03-22T13:06:13;9.90;;;7.47;;
5060;SDS011;2549;52.128;21.068;2024-03-22T13:08:40;12.80;;;7.60;;
5060;SDS011;2549;52.128;21.068;2024-03-22T13:11:06;9.20;;;7.07;;
5060;SDS011;2549;52.128;21.068;2024-03-22T13:13:35;11.97;;;7.57;;
5060;SDS011;2549;52.128;21.068;2024-03-22T13:16:01;10.90;;;7.57;;
5060;SDS011;2549;52.128;21.068;2024-03-22T13:18:28;11.93;;;7.67;;
5060;SDS011;2549;52.128;21.068;2024-03-22T13:20:54;11.67;;;7.10;;
5060;SDS011;2549;52.128;21.068;2024-03-22T13:23:20;12.07;;;7.03;;
5060;SDS011;2549;52.128;21.068;2024-03-22T13:25:46;11.13;;;8.07;;
5060;SDS011;2549;52.128;21.068;2024-03-22T13:28:12;11.80;;;7.60;;
5060;SDS011;2549;52.128;21.068;2024-03-22T13:30:38;9.37;;;7.20;;
5060;SDS011;2549;52.128;21.068;2024-03-22T13:33:05;16.30;;;7.67;;
5060;SDS011;2549;52.128;21.068;2024-03-22T13:35:33;13.97;;;7.40;;
5060;SDS011;2549;52.128;21.068;2024-03-22T13:37:59;11.60;;;7.40;;
5060;SDS011;2549;52.128;21.068;2024-03-22T13:40:26;12.60;;;7.77;;
5060;SDS011;2549;52.128;21.068;2024-03-22T13:42:53;12.80;;;8.60;;
5060;SDS011;2549;52.128;21.068;2024-03-22T13:45:19;10.63;;;7.20;;
5060;SDS011;2549;52.128;21.068;2024-03-22T13:47:46;11.13;;;7.30;;
5060;SDS011;2549;52.128;21.068;2024-03-22T13:50:12;13.60;;;8.87;;
5060;SDS011;2549;52.128;21.068;2024-03-22T13:52:38;12.80;;;8.10;;
5060;SDS011;2549;52.128;21.068;2024-03-22T13:55:04;9.83;;;7.77;;
5060;SDS011;2549;52.128;21.068;2024-03-22T13:57:30;11.77;;;8.30;;
5060;SDS011;2549;52.128;21.068;2024-03-22T13:59:57;11.20;;;7.47;;
5060;SDS011;2549;52.128;21.068;2024-03-22T14:02:24;10.67;;;8.13;;
5060;SDS011;2549;52.128;21.068;2024-03-22T14:04:50;16.03;;;8.90;;
5060;SDS011;2549;52.128;21.068;2024-03-22T14:07:16;8.63;;;6.87;;
5060;SDS011;2549;52.128;21.068;2024-03-22T14:09:42;13.97;;;7.50;;
5060;SDS011;2549;52.128;21.068;2024-03-22T14:12:08;10.63;;;7.70;;
5060;SDS011;2549;52.128;21.068;2024-03-22T14:14:34;12.80;;;7.60;;
5060;SDS011;2549;52.128;21.068;2024-03-22T14:17:00;12.20;;;7.23;;
5060;SDS011;2549;52.128;21.068;2024-03-22T14:19:28;11.07;;;7.60;;
5060;SDS011;2549;52.128;21.068;2024-03-22T14:21:54;11.00;;;8.00;;
5060;SDS011;2549;52.128;21.068;2024-03-22T14:24:20;15.27;;;7.90;;
5060;SDS011;2549;52.128;21.068;2024-03-22T14:26:46;12.13;;;6.80;;
5060;SDS011;2549;52.128;21.068;2024-03-22T14:29:12;12.10;;;7.23;;
5060;SDS011;2549;52.128;21.068;2024-03-22T14:31:38;9.47;;;6.63;;
5060;SDS011;2549;52.128;21.068;2024-03-22T14:34:07;10.13;;;7.40;;
5060;SDS011;2549;52.128;21.068;2024-03-22T14:36:34;9.70;;;7.70;;